createdAt,value
2024-04-16T00:01:59.071Z,99.90
2024-04-16T00:06:07.962Z,99.90
2024-04-16T00:10:16.633Z,99.90
2024-04-16T00:14:25.238Z,99.90
2024-04-16T00:18:33.866Z,99.90
2024-04-16T00:22:43.451Z,99.90
2024-04-16T00:26:52.035Z,99.90
2024-04-16T00:31:00.726Z,99.90
2024-04-16T00:35:09.411Z,99.90
2024-04-16T00:39:17.977Z,99.90
2024-04-16T00:43:26.595Z,99.90
2024-04-16T00:47:35.318Z,99.90
2024-04-16T00:51:44.306Z,99.90
2024-04-16T00:55:53.546Z,99.90
2024-04-16T01:00:02.120Z,99.90
2024-04-16T01:04:10.874Z,99.90
2024-04-16T01:08:19.659Z,99.90
2024-04-16T01:12:28.150Z,99.90
2024-04-16T01:16:36.755Z,99.90
2024-04-16T01:20:45.691Z,99.90
2024-04-16T01:24:55.844Z,99.90
2024-04-16T01:29:04.447Z,99.90
2024-04-16T01:33:13.365Z,99.90
2024-04-16T01:37:21.942Z,99.90
2024-04-16T01:41:30.486Z,99.90
2024-04-16T01:45:39.079Z,99.90
2024-04-16T01:49:47.658Z,99.90
2024-04-16T01:53:56.337Z,99.90
2024-04-16T01:58:05.384Z,99.90
2024-04-16T02:02:14.303Z,99.90
2024-04-16T02:06:42.249Z,99.90
2024-04-16T02:10:55.993Z,99.90
2024-04-16T02:15:04.817Z,99.90
2024-04-16T02:19:13.392Z,99.90
2024-04-16T02:23:21.951Z,99.90
2024-04-16T02:27:30.522Z,99.90
2024-04-16T02:31:39.132Z,99.90
2024-04-16T02:35:48.226Z,99.90
2024-04-16T02:39:56.774Z,99.90
2024-04-16T02:44:05.292Z,99.90
2024-04-16T02:48:13.853Z,99.90
2024-04-16T02:52:22.383Z,99.90
2024-04-16T02:56:30.936Z,99.90
2024-04-16T03:00:40.637Z,99.90
2024-04-16T03:04:49.480Z,99.90
2024-04-16T03:08:58.116Z,1.00
2024-04-16T03:13:06.697Z,99.90
2024-04-16T03:17:15.349Z,99.90
2024-04-16T03:21:26.014Z,1.00
2024-04-16T03:25:35.774Z,1.00
2024-04-16T03:29:44.410Z,1.00
2024-04-16T03:33:52.911Z,1.00
2024-04-16T03:38:01.529Z,1.00
2024-04-16T03:42:10.130Z,1.00
2024-04-16T03:46:38.087Z,1.00
2024-04-16T03:50:47.274Z,1.00
2024-04-16T03:54:56.243Z,1.00
2024-04-16T03:59:39.937Z,1.00
2024-04-16T04:03:48.571Z,1.00
2024-04-16T04:07:57.164Z,1.00
2024-04-16T04:12:05.916Z,1.00
2024-04-16T04:16:15.198Z,1.00
2024-04-16T04:20:23.858Z,1.00
2024-04-16T04:24:34.595Z,1.00
2024-04-16T04:28:42.570Z,1.00
2024-04-16T04:33:11.665Z,1.00
2024-04-16T04:37:20.379Z,1.00
2024-04-16T04:41:28.934Z,99.90
2024-04-16T04:45:37.499Z,99.90
2024-04-16T04:49:46.000Z,99.90
2024-04-16T04:53:55.748Z,32.10
2024-04-16T04:58:04.534Z,99.90
2024-04-16T05:02:13.244Z,99.90
2024-04-16T05:06:41.501Z,99.90
2024-04-16T05:10:53.810Z,40.10
2024-04-16T05:15:03.440Z,99.90
2024-04-16T05:19:11.981Z,99.90
2024-04-16T05:23:20.535Z,99.90
2024-04-16T05:27:30.635Z,1.00
2024-04-16T05:31:39.196Z,95.00
2024-04-16T05:35:47.814Z,1.00
2024-04-16T05:39:56.375Z,99.90
2024-04-16T05:44:04.945Z,13.60
2024-04-16T05:48:13.621Z,1.00
2024-04-16T05:52:41.731Z,27.90
2024-04-16T05:56:50.333Z,1.00
2024-04-16T06:00:58.945Z,1.00
2024-04-16T06:05:07.957Z,1.00
2024-04-16T06:09:16.673Z,1.00
2024-04-16T06:13:40.240Z,1.00
2024-04-16T06:17:47.894Z,1.00
2024-04-16T06:21:56.542Z,1.00
2024-04-16T06:26:09.978Z,24.40
2024-04-16T06:30:37.995Z,1.00
2024-04-16T06:34:46.601Z,1.00
2024-04-16T06:38:55.230Z,99.90
2024-04-16T06:43:03.758Z,1.00
2024-04-16T06:47:12.308Z,99.90
2024-04-16T06:51:20.894Z,99.90
2024-04-16T06:55:31.060Z,99.90
2024-04-16T06:59:39.712Z,1.00
2024-04-16T07:03:48.378Z,99.90
2024-04-16T07:07:56.990Z,99.90
2024-04-16T07:12:05.796Z,1.00
2024-04-16T07:16:14.668Z,1.00
2024-04-16T07:20:23.225Z,99.90
2024-04-16T07:24:52.031Z,1.00
2024-04-16T07:29:00.575Z,99.90
2024-04-16T07:33:10.514Z,1.00
2024-04-16T07:37:19.418Z,1.00
2024-04-16T07:41:27.949Z,1.00
2024-04-16T07:45:36.519Z,1.00
2024-04-16T07:49:45.148Z,1.00
2024-04-16T07:53:53.691Z,1.00
2024-04-16T07:58:21.628Z,99.90
2024-04-16T08:02:30.198Z,99.90
2024-04-16T08:06:38.827Z,99.90
2024-04-16T08:10:50.392Z,99.90
2024-04-16T08:15:00.317Z,1.00
2024-04-16T08:19:09.664Z,1.00
2024-04-16T08:23:19.790Z,1.00
2024-04-16T08:27:28.492Z,1.00
2024-04-16T08:31:37.112Z,1.00
2024-04-16T08:35:45.791Z,99.90
2024-04-16T08:39:54.350Z,99.90
2024-04-16T08:44:06.451Z,1.00
2024-04-16T08:48:15.260Z,1.00
2024-04-16T08:52:24.130Z,99.90
2024-04-16T08:56:33.532Z,99.90
2024-04-16T09:00:42.689Z,99.90
2024-04-16T09:04:52.740Z,17.40
2024-04-16T09:09:09.476Z,31.10
2024-04-16T09:13:15.113Z,13.50
2024-04-16T09:17:23.918Z,11.30
2024-04-16T09:21:32.623Z,99.90
2024-04-16T09:25:41.644Z,1.00
2024-04-16T09:29:50.323Z,99.90
2024-04-16T09:34:11.726Z,99.90
2024-04-16T09:38:20.433Z,1.00
2024-04-16T09:42:31.433Z,1.00
2024-04-16T09:46:41.887Z,1.00
2024-04-16T09:50:56.084Z,1.00
2024-04-16T09:55:04.656Z,1.00
2024-04-16T09:59:14.274Z,1.00
2024-04-16T10:03:24.108Z,1.00
2024-04-16T10:07:32.798Z,1.00
2024-04-16T10:11:42.165Z,1.00
2024-04-16T10:15:51.608Z,1.00
2024-04-16T10:20:01.743Z,99.90
2024-04-16T10:24:12.328Z,99.90
2024-04-16T10:28:37.645Z,99.90
2024-04-16T10:32:51.260Z,99.90
2024-04-16T10:36:59.948Z,99.90
2024-04-16T10:41:08.529Z,99.90
2024-04-16T10:45:17.973Z,99.90
2024-04-16T10:49:28.259Z,99.90
2024-04-16T10:53:37.015Z,99.90
2024-04-16T10:57:46.497Z,99.90
2024-04-16T11:01:55.212Z,99.90
2024-04-16T11:06:03.824Z,99.90
2024-04-16T11:10:12.445Z,99.90
2024-04-16T11:14:21.049Z,99.90
2024-04-16T11:18:31.767Z,99.90
2024-04-16T11:22:41.702Z,99.90
2024-04-16T11:26:50.827Z,99.90
2024-04-16T11:31:00.442Z,99.90
2024-04-16T11:35:10.616Z,99.90
2024-04-16T11:39:19.308Z,99.90
2024-04-16T11:43:37.649Z,99.90
2024-04-16T11:47:46.980Z,99.90
2024-04-16T11:51:55.679Z,99.90
2024-04-16T11:56:04.328Z,99.90
2024-04-16T12:00:13.031Z,99.90
2024-04-16T12:04:41.613Z,99.90
2024-04-16T12:08:50.244Z,99.90
2024-04-16T12:12:58.871Z,99.90
2024-04-16T12:17:07.447Z,99.90
2024-04-16T12:21:16.083Z,99.90
2024-04-16T12:25:24.769Z,99.90
2024-04-16T12:29:33.322Z,99.90
2024-04-16T12:33:41.970Z,99.90
2024-04-16T12:37:50.817Z,99.90
2024-04-16T12:42:01.103Z,99.90
2024-04-16T12:46:09.686Z,99.90
2024-04-16T12:50:19.709Z,99.90
2024-04-16T12:54:28.518Z,99.90
2024-04-16T12:58:37.168Z,99.90
2024-04-16T13:02:48.946Z,99.90
2024-04-16T13:06:57.374Z,99.90
2024-04-16T13:11:06.940Z,99.90
2024-04-16T13:15:15.484Z,99.90
2024-04-16T13:19:24.312Z,99.90
2024-04-16T13:23:32.875Z,99.90
2024-04-16T13:27:41.488Z,99.90
2024-04-16T13:31:50.030Z,99.90
2024-04-16T13:35:58.585Z,99.90
2024-04-16T13:40:10.890Z,99.90
2024-04-16T13:44:18.490Z,99.90
2024-04-16T13:48:27.286Z,99.90
2024-04-16T13:52:36.039Z,99.90
2024-04-16T13:56:44.609Z,99.90
2024-04-16T14:00:53.177Z,99.90
2024-04-16T14:05:01.734Z,99.90
2024-04-16T14:09:10.385Z,99.90
2024-04-16T14:13:18.998Z,99.90
2024-04-16T14:17:27.579Z,99.90
2024-04-16T14:21:36.134Z,99.90
2024-04-16T14:25:44.813Z,99.90
2024-04-16T14:29:53.378Z,99.90
2024-04-16T14:34:01.970Z,99.90
2024-04-16T14:38:10.616Z,99.90
2024-04-16T14:42:19.329Z,99.90
2024-04-16T14:46:28.001Z,99.90
2024-04-16T14:50:44.917Z,99.90
2024-04-16T14:54:54.480Z,99.90
2024-04-16T14:59:03.413Z,99.90
2024-04-16T15:03:12.607Z,99.90
2024-04-16T15:07:21.307Z,99.90
2024-04-16T15:11:30.037Z,99.90
2024-04-16T15:15:38.566Z,99.90
2024-04-16T15:19:47.273Z,99.90
2024-04-16T15:23:55.928Z,99.90
2024-04-16T15:28:04.868Z,99.90
2024-04-16T15:32:13.587Z,99.90
2024-04-16T15:36:22.133Z,99.90
2024-04-16T15:40:31.866Z,99.90
2024-04-16T15:44:48.691Z,1.00
2024-04-16T15:48:57.234Z,1.00
2024-04-16T15:53:06.011Z,99.90
2024-04-16T15:57:14.592Z,99.90
2024-04-16T16:01:23.162Z,99.90
2024-04-16T16:05:31.966Z,99.90
2024-04-16T16:09:40.557Z,99.90
2024-04-16T16:13:49.208Z,99.90
2024-04-16T16:17:57.824Z,99.90
2024-04-16T16:22:06.555Z,99.90
2024-04-16T16:26:17.458Z,99.90
2024-04-16T16:30:25.332Z,99.90
2024-04-16T16:34:34.813Z,1.00
2024-04-16T16:38:44.546Z,1.00
2024-04-16T16:42:56.092Z,1.00
2024-04-16T16:47:04.594Z,1.00
2024-04-16T16:51:13.207Z,1.00
2024-04-16T16:55:21.973Z,1.00
2024-04-16T16:59:30.750Z,1.00
2024-04-16T17:03:39.446Z,1.00
2024-04-16T17:07:47.974Z,1.00
2024-04-16T17:12:15.939Z,1.00
2024-04-16T17:16:24.617Z,1.00
2024-04-16T17:20:33.534Z,1.00
2024-04-16T17:24:44.034Z,1.00
2024-04-16T17:28:52.745Z,1.00
2024-04-16T17:33:01.415Z,1.00
2024-04-16T17:37:09.985Z,1.00
2024-04-16T17:41:18.560Z,1.00
2024-04-16T17:45:27.273Z,1.00
2024-04-16T17:49:35.927Z,1.00
2024-04-16T17:53:45.188Z,1.00
2024-04-16T17:57:53.769Z,1.00
2024-04-16T18:02:02.448Z,1.00
2024-04-16T18:06:11.121Z,1.00
2024-04-16T18:10:19.868Z,1.00
2024-04-16T18:14:28.546Z,1.00
2024-04-16T18:18:37.353Z,1.00
2024-04-16T18:22:46.857Z,1.00
2024-04-16T18:26:55.516Z,1.00
2024-04-16T18:31:04.119Z,1.00
2024-04-16T18:35:12.767Z,1.00
2024-04-16T18:39:21.412Z,1.00
2024-04-16T18:43:30.359Z,1.00
2024-04-16T18:47:38.986Z,1.00
2024-04-16T18:51:47.598Z,1.00
2024-04-16T18:55:56.570Z,1.00
2024-04-16T19:00:05.403Z,1.00
2024-04-16T19:04:14.203Z,1.00
2024-04-16T19:08:22.988Z,1.00
2024-04-16T19:12:32.824Z,1.00
2024-04-16T19:16:41.483Z,58.90
2024-04-16T19:20:50.261Z,99.90
2024-04-16T19:25:11.365Z,1.00
2024-04-16T19:29:22.011Z,1.00
2024-04-16T19:33:30.179Z,1.00
2024-04-16T19:37:38.790Z,1.00
2024-04-16T19:41:47.392Z,1.00
2024-04-16T19:45:56.811Z,1.00
2024-04-16T19:50:05.458Z,1.00
2024-04-16T19:54:17.554Z,1.00
2024-04-16T19:58:24.778Z,1.00
2024-04-16T20:02:34.030Z,1.00
2024-04-16T20:06:43.170Z,1.00
2024-04-16T20:10:51.866Z,1.00
2024-04-16T20:15:00.858Z,1.00
2024-04-16T20:19:10.695Z,1.00
2024-04-16T20:23:19.271Z,1.00
2024-04-16T20:27:27.887Z,1.00
2024-04-16T20:31:36.496Z,1.00
2024-04-16T20:35:45.045Z,1.00
2024-04-16T20:40:06.008Z,1.00
2024-04-16T20:44:14.559Z,1.00
2024-04-16T20:48:23.181Z,1.00
2024-04-16T20:52:31.740Z,1.00
2024-04-16T20:56:40.321Z,1.00
2024-04-16T21:00:48.936Z,1.00
2024-04-16T21:04:57.494Z,1.00
2024-04-16T21:09:06.023Z,1.00
2024-04-16T21:13:14.735Z,1.00
2024-04-16T21:17:23.470Z,1.00
2024-04-16T21:21:32.030Z,1.00
2024-04-16T21:25:40.651Z,1.00
2024-04-16T21:29:49.301Z,1.00
2024-04-16T21:33:57.932Z,1.00
2024-04-16T21:38:06.617Z,1.00
2024-04-16T21:42:15.168Z,1.00
2024-04-16T21:46:24.034Z,1.00
2024-04-16T21:50:32.563Z,1.00
2024-04-16T21:54:41.187Z,1.00
2024-04-16T21:58:49.877Z,1.00
2024-04-16T22:03:00.282Z,1.00
2024-04-16T22:07:08.853Z,1.00
2024-04-16T22:11:17.465Z,1.00
2024-04-16T22:15:26.011Z,1.00
2024-04-16T22:19:35.501Z,1.00
2024-04-16T22:23:44.096Z,1.00
2024-04-16T22:27:52.692Z,1.00
2024-04-16T22:32:01.265Z,1.00
2024-04-16T22:36:09.844Z,1.00
2024-04-16T22:40:18.417Z,1.00
2024-04-16T22:44:47.950Z,1.00
2024-04-16T22:48:56.479Z,1.00
2024-04-16T22:53:05.285Z,1.00
2024-04-16T22:57:13.880Z,1.00
2024-04-16T23:01:22.533Z,1.00
2024-04-16T23:05:31.076Z,1.00
2024-04-16T23:09:39.572Z,1.00
2024-04-16T23:13:48.082Z,1.00
2024-04-16T23:17:56.835Z,1.00
2024-04-16T23:22:05.531Z,1.00
2024-04-16T23:26:14.102Z,1.00
2024-04-16T23:30:22.655Z,1.00
2024-04-16T23:34:31.325Z,1.00
2024-04-16T23:38:39.946Z,1.00
2024-04-16T23:42:48.457Z,1.00
2024-04-16T23:46:57.088Z,1.00
2024-04-16T23:51:05.651Z,1.00
2024-04-16T23:55:14.179Z,1.00
2024-04-16T23:59:22.729Z,1.00
